Time;durP1;ratioP1;P1;durP2;ratioP2;P2;SDS_P1;SDS_P2;PMS_P1;PMS_P2;Temp;Humidity;BMP_temperature;BMP_pressure;BME280_temperature;BME280_humidity;BME280_pressure;Samples;Min_cycle;Max_cycle;Signal;HPM_P1;HPM_P2
2023/09/13 10:31:38;;;;;;;8.50;3.40;;;;;;;24.98;32.54;99643.88;80399;1305;3012950;-70
2023/09/13 10:34:08;;;;;;;8.20;3.00;;;;;;;25.13;33.08;99643.23;79646;1301;3011707;-74
2023/09/13 10:36:39;;;;;;;9.40;3.10;;;;;;;25.37;32.35;99641.86;78199;1305;3049592;-69
2023/09/13 10:39:07;;;;;;;7.50;3.00;;;;;;;25.46;31.77;99637.66;79522;1301;3013114;-70
2023/09/13 10:41:41;;;;;;;10.80;3.40;;;;;;;25.70;32.04;99631.39;78354;1304;3026450;-69
2023/09/13 10:44:09;;;;;;;4.70;3.00;;;;;;;25.84;31.75;99633.80;77036;1299;3175226;-70
2023/09/13 10:46:37;;;;;;;8.10;3.40;;;;;;;25.80;31.13;99635.23;78319;1298;3049034;-70
2023/09/13 10:49:04;;;;;;;6.70;3.20;;;;;;;25.84;31.04;99632.02;79830;1297;3012696;-70
2023/09/13 10:51:31;;;;;;;11.40;3.30;;;;;;;26.00;31.62;99631.95;79670;1299;3011787;-71
2023/09/13 10:54:00;;;;;;;9.10;3.60;;;;;;;26.19;31.18;99633.38;78268;1299;3049071;-69
2023/09/13 10:56:27;;;;;;;12.70;3.80;;;;;;;26.33;30.43;99633.73;79622;1301;3013254;-66
2023/09/13 10:58:54;;;;;;;10.00;4.10;;;;;;;26.15;30.67;99632.35;79785;1301;3013442;-71
2023/09/13 11:01:21;;;;;;;5.90;3.60;;;;;;;26.05;31.40;99635.55;78349;1298;3051410;-74
2023/09/13 11:03:48;;;;;;;7.00;4.00;;;;;;;26.00;31.47;99633.09;79624;1298;3013600;-68
2023/09/13 11:06:15;;;;;;;12.00;4.20;;;;;;;26.28;31.18;99628.14;79429;1304;3011436;-72
2023/09/13 11:08:43;;;;;;;9.10;4.00;;;;;;;26.45;30.74;99625.77;78323;1303;3025734;-72
2023/09/13 11:11:18;;;;;;;8.90;4.10;;;;;;;26.51;30.43;99626.07;79591;1298;3013152;-69
2023/09/13 11:13:46;;;;;;;14.00;4.70;;;;;;;26.67;30.53;99625.73;78309;1299;3069090;-69
2023/09/13 11:16:13;;;;;;;12.00;4.90;;;;;;;26.74;30.36;99625.63;79558;1298;3012834;-68
2023/09/13 11:18:51;;;;;;;11.50;4.40;;;;;;;26.69;30.24;99625.48;79739;1297;3012932;-70
2023/09/13 11:21:26;;;;;;;7.60;4.10;;;;;;;26.61;30.46;99622.72;78454;1301;3053394;-69
2023/09/13 11:23:55;;;;;;;5.70;3.40;;;;;;;26.86;30.43;99619.23;79025;1301;3011791;-67
2023/09/13 11:26:44;;;;;;;18.80;4.30;;;;;;;26.98;30.12;99616.12;79740;1298;3013176;-69
2023/09/13 11:29:23;;;;;;;6.80;3.70;;;;;;;26.99;29.68;99614.39;78236;1299;3052730;-72
2023/09/13 11:32:03;;;;;;;12.40;4.30;;;;;;;27.09;29.72;99612.95;78401;1299;3069282;-68
2023/09/13 11:34:36;;;;;;;5.70;3.70;;;;;;;27.17;30.00;99610.56;78345;1297;3050309;-68
2023/09/13 11:37:07;;;;;;;8.60;4.60;;;;;;;27.25;29.57;99606.13;79523;1298;3011530;-72
2023/09/13 11:39:35;;;;;;;10.80;4.10;;;;;;;27.29;29.40;99609.09;78450;1299;3049160;-72
2023/09/13 11:42:11;;;;;;;13.10;4.60;;;;;;;27.26;29.51;99609.15;79627;1301;3013303;-72
2023/09/13 11:44:40;;;;;;;11.10;4.20;;;;;;;27.26;29.44;99608.20;78441;1298;3052015;-73
2023/09/13 11:47:08;;;;;;;7.70;4.20;;;;;;;27.39;29.46;99607.46;79721;1299;3013730;-73
2023/09/13 11:49:38;;;;;;;12.20;4.30;;;;;;;27.36;29.90;99605.09;79778;1297;3011529;-71
2023/09/13 11:52:06;;;;;;;8.10;4.20;;;;;;;27.56;29.02;99603.07;78713;1296;3056684;-69
2023/09/13 11:54:33;;;;;;;5.70;4.20;;;;;;;27.68;28.76;99599.59;79769;1295;3013591;-69
2023/09/13 11:57:02;;;;;;;10.20;4.30;;;;;;;27.79;28.66;99598.46;79899;1295;3012937;-69
2023/09/13 11:59:30;;;;;;;6.40;4.20;;;;;;;27.85;28.61;99598.52;78642;1297;3052862;-73
2023/09/13 12:01:57;;;;;;;9.40;4.20;;;;;;;27.87;28.64;99596.33;79787;1300;3013346;-72
2023/09/13 12:04:25;;;;;;;9.80;4.40;;;;;;;27.88;28.63;99594.06;79862;1296;3011599;-68
2023/09/13 12:06:56;;;;;;;11.80;4.40;;;;;;;27.90;28.79;99594.92;78530;1301;3058178;-68
2023/09/13 12:09:24;;;;;;;8.90;4.20;;;;;;;27.98;28.44;99595.09;79613;1296;3011540;-72
2023/09/13 12:11:54;;;;;;;14.30;4.60;;;;;;;27.95;28.56;99595.48;78704;1298;3054345;-70
2023/09/13 12:14:23;;;;;;;6.00;4.00;;;;;;;27.94;28.43;99592.37;79893;1295;3013187;-73
2023/09/13 12:16:52;;;;;;;12.40;4.50;;;;;;;27.82;28.37;99591.39;78640;1295;3053978;-69
2023/09/13 12:19:18;;;;;;;6.20;3.60;;;;;;;27.80;28.19;99589.88;79918;1295;3012000;-67
2023/09/13 12:21:46;;;;;;;13.80;4.40;;;;;;;27.66;28.30;99590.28;79720;1295;3011875;-70
2023/09/13 12:24:21;;;;;;;15.30;4.50;;;;;;;27.70;28.58;99591.05;78588;1295;3048785;-69
2023/09/13 12:26:53;;;;;;;8.20;4.80;;;;;;;27.57;28.57;99587.84;79518;1295;3013188;-69
2023/09/13 12:29:21;;;;;;;9.50;4.00;;;;;;;27.65;28.65;99585.52;79915;1295;3011656;-70
2023/09/13 12:31:49;;;;;;;11.50;4.70;;;;;;;27.79;28.53;99587.39;78789;1298;3050688;-74
2023/09/13 12:34:16;;;;;;;9.00;4.20;;;;;;;27.83;28.31;99584.44;79826;1298;3018632;-70
2023/09/13 12:36:43;;;;;;;8.30;4.30;;;;;;;27.95;28.33;99581.90;79804;1298;3011572;-67
2023/09/13 12:39:13;;;;;;;8.70;3.80;;;;;;;28.05;28.19;99579.79;78749;1295;3050187;-75
2023/09/13 12:41:39;;;;;;;11.80;3.90;;;;;;;28.15;27.94;99581.68;79938;1298;3013622;-70
2023/09/13 12:44:09;;;;;;;6.30;3.60;;;;;;;28.16;28.02;99584.63;79952;1295;3011763;-70
2023/09/13 12:46:40;;;;;;;13.00;4.00;;;;;;;28.25;28.47;99586.64;78464;1295;3048855;-72
2023/09/13 12:49:07;;;;;;;8.10;3.50;;;;;;;28.34;28.89;99583.87;80072;1295;3012611;-67
2023/09/13 12:51:36;;;;;;;8.20;4.20;;;;;;;28.45;28.66;99584.49;79299;1295;3012160;-67
2023/09/13 12:54:05;;;;;;;11.10;4.10;;;;;;;28.53;28.47;99584.38;79777;1295;3012199;-74
2023/09/13 12:56:37;;;;;;;12.20;4.20;;;;;;;28.57;28.35;99584.70;79450;1295;3013080;-71
2023/09/13 12:59:05;;;;;;;9.90;3.70;;;;;;;28.59;28.06;99584.58;79929;1296;3015816;-70
2023/09/13 13:01:35;;;;;;;13.40;3.90;;;;;;;28.60;28.19;99584.00;79314;1300;3011381;-70
2023/09/13 13:04:09;;;;;;;8.90;4.00;;;;;;;28.60;28.97;99578.92;79891;1298;3011584;-71
2023/09/13 13:07:02;;;;;;;7.60;3.50;;;;;;;28.61;28.72;99581.83;78764;1295;3050501;-71
2023/09/13 13:09:30;;;;;;;11.30;4.00;;;;;;;28.55;28.59;99584.05;78768;1297;3053593;-70
2023/09/13 13:11:57;;;;;;;12.20;3.90;;;;;;;28.54;28.59;99581.02;79811;1295;3014635;-73
2023/09/13 13:14:29;;;;;;;15.30;4.70;;;;;;;28.58;28.37;99582.42;79759;1298;3013531;-70
2023/09/13 13:17:00;;;;;;;10.10;4.20;;;;;;;28.54;27.97;99582.67;78718;1295;3055993;-69
2023/09/13 13:19:34;;;;;;;17.30;4.40;;;;;;;28.48;28.24;99582.66;80115;1295;3011731;-70
2023/09/13 13:22:04;;;;;;;10.50;4.70;;;;;;;28.57;28.43;99584.75;78632;1295;3052936;-70
2023/09/13 13:24:30;;;;;;;13.00;4.40;;;;;;;28.64;28.40;99584.39;79715;1295;3011402;-70
2023/09/13 13:26:57;;;;;;;8.90;4.30;;;;;;;28.51;28.55;99579.75;79869;1294;3012926;-68
2023/09/13 13:29:25;;;;;;;9.70;4.20;;;;;;;28.50;28.80;99579.80;78595;1298;3069752;-71
2023/09/13 13:31:52;;;;;;;11.40;4.10;;;;;;;28.53;28.78;99579.05;79804;1296;3013028;-69
2023/09/13 13:34:18;;;;;;;9.20;4.90;;;;;;;28.52;28.78;99578.38;79650;1295;3011604;-72
2023/09/13 13:36:46;;;;;;;14.60;4.50;;;;;;;28.53;28.55;99573.98;78607;1296;3026221;-78
2023/09/13 13:39:15;;;;;;;13.80;5.10;;;;;;;28.49;28.59;99575.35;80147;1298;3014781;-67
2023/09/13 13:41:45;;;;;;;7.40;4.40;;;;;;;28.56;28.71;99570.86;79705;1298;3011595;-69
2023/09/13 13:44:12;;;;;;;12.10;4.70;;;;;;;28.58;28.96;99566.91;80170;1295;3013264;-70
2023/09/13 13:46:39;;;;;;;12.20;4.40;;;;;;;28.64;28.66;99565.23;80139;1295;3011750;-69
2023/09/13 13:49:07;;;;;;;10.60;4.20;;;;;;;28.64;28.35;99565.02;78803;1295;3027795;-73
2023/09/13 13:51:33;;;;;;;8.20;4.20;;;;;;;28.73;28.61;99565.68;79944;1295;3018465;-69
2023/09/13 13:54:02;;;;;;;9.40;4.50;;;;;;;28.76;28.40;99567.05;79893;1295;3011514;-67
2023/09/13 13:56:30;;;;;;;9.60;4.10;;;;;;;28.71;28.36;99570.60;78474;1295;3052945;-68
2023/09/13 13:58:57;;;;;;;16.20;8.00;;;;;;;28.78;28.32;99568.80;79940;1298;3013644;-71
2023/09/13 14:01:23;;;;;;;10.40;4.30;;;;;;;28.78;28.22;99566.71;79882;1294;3014023;-73
2023/09/13 14:03:52;;;;;;;18.90;4.30;;;;;;;28.75;28.57;99565.77;78627;1295;3025886;-70
2023/09/13 14:06:18;;;;;;;18.20;4.30;;;;;;;28.79;28.71;99561.80;79980;1295;3012898;-69
2023/09/13 14:08:45;;;;;;;11.50;4.20;;;;;;;28.72;28.81;99562.85;80206;1295;3011341;-66
2023/09/13 14:11:13;;;;;;;14.30;4.70;;;;;;;28.53;28.44;99561.80;79105;1298;3024810;-68
2023/09/13 14:13:39;;;;;;;11.80;4.70;;;;;;;28.39;28.72;99569.28;79793;1294;3013767;-69
2023/09/13 14:16:06;;;;;;;15.90;4.50;;;;;;;28.32;29.03;99566.96;79738;1298;3013404;-73
2023/09/13 14:18:34;;;;;;;11.50;4.10;;;;;;;28.22;29.02;99568.02;78589;1294;3024950;-72
2023/09/13 14:21:00;;;;;;;7.70;4.40;;;;;;;28.08;29.51;99568.80;79833;1295;3018535;-72
2023/09/13 14:23:27;;;;;;;14.60;4.90;;;;;;;28.09;29.52;99567.97;80082;1295;3011438;-71
2023/09/13 14:25:54;;;;;;;11.00;4.30;;;;;;;28.19;29.25;99569.05;78564;1295;3026823;-70
2023/09/13 14:28:21;;;;;;;14.40;4.00;;;;;;;28.21;29.13;99571.02;79831;1298;3019202;-72
2023/09/13 14:30:50;;;;;;;10.80;4.60;;;;;;;28.20;29.30;99567.11;79841;1295;3011886;-69
2023/09/13 14:33:18;;;;;;;10.30;4.20;;;;;;;28.15;29.33;99564.66;78646;1298;3056946;-68
2023/09/13 14:35:44;;;;;;;11.40;4.70;;;;;;;28.07;29.28;99568.04;80176;1298;3015060;-72
2023/09/13 14:38:11;;;;;;;10.10;4.60;;;;;;;27.97;29.49;99558.83;79843;1295;3013026;-72
2023/09/13 14:40:39;;;;;;;11.10;4.30;;;;;;;27.91;29.45;99562.58;78685;1298;3025177;-72
2023/09/13 14:43:06;;;;;;;14.00;4.40;;;;;;;27.87;29.58;99562.86;79596;1301;3013143;-74
2023/09/13 14:45:33;;;;;;;10.80;4.70;;;;;;;27.82;29.96;99561.52;79924;1295;3012106;-70
2023/09/13 14:48:01;;;;;;;15.60;4.80;;;;;;;27.81;30.06;99561.97;78498;1295;3026451;-70
2023/09/13 14:50:27;;;;;;;10.50;4.60;;;;;;;27.78;30.28;99560.64;79961;1295;3012923;-65
2023/09/13 14:52:54;;;;;;;13.20;4.50;;;;;;;27.80;30.26;99556.16;79631;1295;3011542;-67
2023/09/13 14:55:22;;;;;;;14.10;4.30;;;;;;;27.80;30.32;99555.29;78613;1295;3025961;-71
2023/09/13 14:57:48;;;;;;;9.90;4.20;;;;;;;27.75;30.39;99554.52;79957;1294;3013022;-68
2023/09/13 15:00:16;;;;;;;13.00;4.90;;;;;;;27.76;30.37;99555.65;79753;1298;3011678;-70
2023/09/13 15:02:44;;;;;;;10.70;4.50;;;;;;;27.63;30.54;99555.95;78703;1295;3056646;-73
2023/09/13 15:05:10;;;;;;;16.10;4.20;;;;;;;27.52;30.68;99551.84;79964;1294;3013460;-69
2023/09/13 15:07:37;;;;;;;13.30;4.50;;;;;;;27.49;30.61;99557.48;79775;1295;3011696;-73
2023/09/13 15:10:05;;;;;;;9.00;4.30;;;;;;;27.43;30.80;99556.06;78605;1298;3026697;-69
2023/09/13 15:12:32;;;;;;;9.80;4.20;;;;;;;27.36;30.74;99553.98;79905;1298;3015159;-71
2023/09/13 15:14:59;;;;;;;13.50;4.80;;;;;;;27.34;30.78;99556.19;79771;1295;3012984;-72
2023/09/13 15:17:29;;;;;;;15.90;5.00;;;;;;;27.22;30.96;99551.27;78823;1294;3056980;-74
2023/09/13 15:19:56;;;;;;;22.50;4.60;;;;;;;27.18;31.27;99551.16;79990;1295;3011345;-73
2023/09/13 15:22:25;;;;;;;8.90;4.00;;;;;;;27.10;31.39;99555.56;79487;1298;3011881;-68
2023/09/13 15:24:53;;;;;;;11.30;4.50;;;;;;;27.05;31.62;99549.84;79677;1300;3018475;-71
2023/09/13 15:27:20;;;;;;;17.90;5.10;;;;;;;26.88;32.15;99554.64;79636;1298;3013703;-68
2023/09/13 15:29:48;;;;;;;10.30;4.50;;;;;;;26.81;32.20;99552.11;78645;1298;3069348;-65
2023/09/13 15:32:14;;;;;;;7.70;4.50;;;;;;;26.61;32.88;99554.09;79820;1295;3014194;-68
2023/09/13 15:34:41;;;;;;;13.70;4.40;;;;;;;26.46;32.83;99555.79;79767;1295;3011714;-69
2023/09/13 15:37:09;;;;;;;17.30;5.30;;;;;;;26.21;33.22;99554.45;78530;1296;3025740;-66
2023/09/13 15:39:38;;;;;;;12.40;5.30;;;;;;;25.99;33.54;99555.71;79964;1298;3013034;-68
2023/09/13 15:42:04;;;;;;;9.10;4.20;;;;;;;25.75;33.74;99556.70;79936;1296;3011356;-68
2023/09/13 15:44:32;;;;;;;18.60;5.10;;;;;;;25.54;34.03;99555.54;78714;1295;3070500;-69
2023/09/13 15:46:59;;;;;;;10.30;5.00;;;;;;;25.36;34.26;99556.92;79922;1298;3013505;-71
2023/09/13 15:49:25;;;;;;;13.10;5.20;;;;;;;25.19;34.50;99554.82;79912;1295;3012875;-71
2023/09/13 15:51:53;;;;;;;13.70;5.20;;;;;;;25.05;34.54;99558.30;78499;1296;3026394;-68
2023/09/13 15:54:20;;;;;;;12.30;5.40;;;;;;;24.92;34.58;99561.84;80059;1298;3013040;-71
2023/09/13 15:56:46;;;;;;;15.40;5.70;;;;;;;24.80;34.34;99564.05;79846;1298;3013159;-69
2023/09/13 15:59:14;;;;;;;12.00;5.30;;;;;;;24.67;34.62;99566.98;78815;1294;3025937;-73
2023/09/13 16:01:41;;;;;;;8.80;5.30;;;;;;;24.57;34.63;99567.27;79771;1294;3012859;-71
2023/09/13 16:04:07;;;;;;;14.90;5.90;;;;;;;24.46;34.30;99569.45;79732;1295;3011396;-70
2023/09/13 16:06:36;;;;;;;10.40;4.60;;;;;;;24.37;34.56;99567.30;78846;1298;3028968;-70
2023/09/13 16:09:03;;;;;;;17.30;6.10;;;;;;;24.24;34.86;99571.60;80862;1295;3012142;-70
2023/09/13 16:11:31;;;;;;;15.10;7.10;;;;;;;24.15;35.18;99575.18;79838;1298;3012054;-69
2023/09/13 16:13:59;;;;;;;14.80;6.80;;;;;;;24.06;35.20;99576.55;78701;1298;3069748;-71
2023/09/13 16:16:27;;;;;;;16.50;7.70;;;;;;;23.97;35.55;99579.77;79784;1295;3019201;-72
2023/09/13 16:18:54;;;;;;;22.30;7.60;;;;;;;23.86;35.82;99577.07;79873;1295;3011971;-70
2023/09/13 16:21:23;;;;;;;15.80;5.90;;;;;;;23.75;36.14;99578.30;78414;1294;3052788;-72
2023/09/13 16:23:50;;;;;;;22.30;6.70;;;;;;;23.69;36.12;99576.81;79628;1294;3015958;-70
2023/09/13 16:26:16;;;;;;;15.60;5.60;;;;;;;23.64;36.02;99578.30;79758;1295;3011611;-69
2023/09/13 16:28:44;;;;;;;11.00;5.30;;;;;;;23.60;35.98;99578.36;78556;1295;3069542;-70
2023/09/13 16:31:10;;;;;;;10.50;5.70;;;;;;;23.56;35.99;99580.63;80057;1295;3012595;-70
2023/09/13 16:33:37;;;;;;;8.90;5.50;;;;;;;23.47;36.36;99581.98;79944;1298;3011570;-72
2023/09/13 16:36:05;;;;;;;11.60;4.90;;;;;;;23.41;36.49;99579.86;78936;1294;3026385;-71
2023/09/13 16:38:31;;;;;;;12.80;4.70;;;;;;;23.33;36.80;99586.66;79935;1298;3013420;-70
2023/09/13 16:40:58;;;;;;;21.90;5.40;;;;;;;23.26;36.94;99583.27;79865;1298;3012857;-71
2023/09/13 16:43:25;;;;;;;12.20;4.90;;;;;;;23.23;37.04;99584.88;78704;1298;3026834;-71
2023/09/13 16:45:52;;;;;;;15.60;5.40;;;;;;;23.17;37.17;99586.27;79755;1296;3013555;-64
2023/09/13 16:48:19;;;;;;;9.90;5.00;;;;;;;23.08;37.53;99594.20;79617;1295;3011640;-71
2023/09/13 16:50:46;;;;;;;7.30;4.90;;;;;;;23.01;37.69;99595.66;78995;1294;3025870;-63
2023/09/13 16:53:13;;;;;;;10.90;5.00;;;;;;;22.97;37.65;99591.84;79786;1298;3013712;-76
2023/09/13 16:55:41;;;;;;;15.20;5.40;;;;;;;22.91;37.80;99597.95;80069;1298;3011620;-68
2023/09/13 16:58:08;;;;;;;14.20;4.90;;;;;;;22.84;38.01;99596.28;80556;1295;3068574;-70
2023/09/13 17:00:35;;;;;;;11.20;5.70;;;;;;;22.77;38.10;99596.36;82031;1296;3018839;-68
2023/09/13 17:03:01;;;;;;;13.80;5.60;;;;;;;22.72;38.27;99596.20;82021;1295;3011152;-68
2023/09/13 17:05:29;;;;;;;13.60;6.10;;;;;;;22.64;38.56;99597.62;80732;1296;3026143;-67
2023/09/13 17:07:56;;;;;;;15.30;5.40;;;;;;;22.59;38.63;99601.90;82036;1295;3011264;-67
2023/09/13 17:10:23;;;;;;;12.90;5.40;;;;;;;22.54;38.97;99600.33;80249;1298;3011530;-68
2023/09/13 17:12:50;;;;;;;10.80;5.10;;;;;;;22.48;39.06;99596.86;78573;1294;3026549;-67
2023/09/13 17:15:17;;;;;;;11.30;5.60;;;;;;;22.40;39.53;99603.36;79912;1296;3018380;-68
2023/09/13 17:17:43;;;;;;;15.30;6.20;;;;;;;22.31;39.63;99602.33;80037;1296;3011497;-70
2023/09/13 17:20:11;;;;;;;12.80;5.80;;;;;;;22.25;40.02;99601.80;79183;1298;3026542;-69
2023/09/13 17:22:38;;;;;;;15.80;5.60;;;;;;;22.13;40.77;99605.75;80196;1297;3011734;-72
2023/09/13 17:25:05;;;;;;;10.20;5.40;;;;;;;22.06;40.63;99601.09;80280;1298;3011291;-70
2023/09/13 17:27:33;;;;;;;11.40;5.20;;;;;;;22.03;40.30;99601.12;78883;1294;3026985;-67
2023/09/13 17:30:00;;;;;;;14.60;5.30;;;;;;;21.96;40.28;99602.38;80049;1295;3018701;-72
2023/09/13 17:32:26;;;;;;;13.80;5.90;;;;;;;21.89;40.10;99603.29;79844;1295;3013732;-69
2023/09/13 17:34:55;;;;;;;12.90;6.00;;;;;;;21.86;40.37;99602.05;78606;1295;3025925;-72
2023/09/13 17:37:21;;;;;;;11.50;4.70;;;;;;;21.77;40.71;99605.09;79915;1298;3013565;-69
2023/09/13 17:39:47;;;;;;;15.00;5.70;;;;;;;21.67;40.34;99604.19;79788;1298;3011661;-70
2023/09/13 17:42:15;;;;;;;11.80;6.10;;;;;;;21.59;40.47;99605.33;78565;1295;3069615;-71
2023/09/13 17:44:43;;;;;;;13.10;4.90;;;;;;;21.56;40.41;99606.52;80150;1294;3018474;-69
2023/09/13 17:47:09;;;;;;;24.20;6.20;;;;;;;21.52;40.27;99607.95;80144;1296;3011793;-69
2023/09/13 17:49:37;;;;;;;14.90;5.80;;;;;;;21.45;40.61;99605.21;78635;1301;3026485;-70
2023/09/13 17:52:04;;;;;;;14.20;5.90;;;;;;;21.36;41.33;99607.34;79754;1298;3013777;-70
2023/09/13 17:54:31;;;;;;;18.50;6.00;;;;;;;21.27;41.45;99607.80;79975;1298;3011658;-69
2023/09/13 17:56:59;;;;;;;17.80;6.00;;;;;;;21.20;41.81;99614.23;78947;1296;3068753;-69
2023/09/13 17:59:27;;;;;;;20.80;8.20;;;;;;;21.13;42.06;99613.94;79895;1295;3018785;-67
2023/09/13 18:01:54;;;;;;;11.30;6.30;;;;;;;21.09;42.17;99620.29;80117;1296;3011894;-69
2023/09/13 18:04:23;;;;;;;19.30;6.50;;;;;;;21.06;42.61;99615.73;78468;1298;3053377;-68
2023/09/13 18:06:49;;;;;;;12.00;6.10;;;;;;;21.02;42.48;99616.70;80055;1295;3013367;-70
2023/09/13 18:09:17;;;;;;;21.30;6.70;;;;;;;20.94;42.57;99613.91;80078;1298;3013070;-70
2023/09/13 18:11:46;;;;;;;19.30;6.00;;;;;;;20.89;42.89;99612.54;78733;1298;3069772;-69
2023/09/13 18:14:13;;;;;;;16.10;7.10;;;;;;;20.84;42.75;99612.30;79887;1295;3011910;-69
2023/09/13 18:16:39;;;;;;;20.80;7.60;;;;;;;20.78;43.25;99611.63;79818;1294;3011658;-71
2023/09/13 18:19:07;;;;;;;20.70;7.10;;;;;;;20.73;43.18;99615.21;78443;1298;3052115;-71
2023/09/13 18:21:34;;;;;;;19.60;6.70;;;;;;;20.65;43.49;99610.02;79927;1295;3012971;-71
2023/09/13 18:24:00;;;;;;;19.20;7.30;;;;;;;20.62;43.15;99609.96;79991;1294;3013285;-67
2023/09/13 18:26:28;;;;;;;13.10;6.70;;;;;;;20.58;43.49;99608.11;78606;1298;3027716;-69
2023/09/13 18:28:55;;;;;;;14.80;6.90;;;;;;;20.55;43.40;99610.41;80142;1298;3013035;-70
2023/09/13 18:31:21;;;;;;;20.70;7.30;;;;;;;20.48;43.88;99609.29;79840;1296;3011990;-70
2023/09/13 18:33:49;;;;;;;21.90;7.30;;;;;;;20.42;43.91;99613.11;78842;1296;3027431;-68
2023/09/13 18:36:15;;;;;;;21.10;7.50;;;;;;;20.38;43.90;99612.81;79746;1299;3018359;-65
2023/09/13 18:38:42;;;;;;;17.70;6.90;;;;;;;20.36;43.54;99607.33;80000;1298;3011687;-67
2023/09/13 18:41:12;;;;;;;16.80;6.20;;;;;;;20.33;43.33;99610.42;78584;1296;3067677;-70
2023/09/13 18:43:38;;;;;;;12.30;6.20;;;;;;;20.29;43.00;99608.98;79922;1295;3013493;-69
2023/09/13 18:46:05;;;;;;;15.00;6.20;;;;;;;20.24;43.25;99609.34;80281;1295;3011812;-70
2023/09/13 18:48:33;;;;;;;14.20;6.50;;;;;;;20.17;43.30;99606.88;79030;1295;3026390;-70
2023/09/13 18:51:01;;;;;;;15.90;6.10;;;;;;;20.12;43.38;99608.90;80478;1295;3013436;-71
2023/09/13 18:53:27;;;;;;;16.20;6.10;;;;;;;20.11;43.39;99612.77;80365;1295;3011556;-71
2023/09/13 18:55:56;;;;;;;14.90;6.70;;;;;;;20.09;43.32;99612.23;79065;1298;3068036;-72
2023/09/13 18:58:23;;;;;;;13.40;6.30;;;;;;;20.08;43.35;99617.52;80202;1295;3011809;-75
2023/09/13 19:00:57;;;;;;;19.50;6.70;;;;;;;20.07;43.17;99615.58;80271;1295;3011947;-67
2023/09/13 19:03:25;;;;;;;14.50;6.60;;;;;;;20.08;43.03;99618.25;78863;1298;3053379;-71
2023/09/13 19:06:03;;;;;;;22.60;6.60;;;;;;;20.08;42.88;99617.48;79852;1298;3021384;-70
2023/09/13 19:08:31;;;;;;;22.80;7.00;;;;;;;20.04;43.23;99613.85;78686;1298;3052075;-73
2023/09/13 19:11:01;;;;;;;25.00;6.70;;;;;;;20.00;43.49;99614.03;80001;1298;3013645;-67
2023/09/13 19:13:29;;;;;;;17.20;6.40;;;;;;;19.94;43.34;99617.38;79374;1298;3011656;-73
2023/09/13 19:16:00;;;;;;;17.80;6.60;;;;;;;19.90;42.94;99615.50;79844;1298;3013592;-72
2023/09/13 19:18:28;;;;;;;18.70;6.80;;;;;;;19.88;42.32;99611.84;78557;1295;3052271;-72
2023/09/13 19:20:55;;;;;;;15.20;5.90;;;;;;;19.80;42.23;99610.45;80163;1295;3013157;-72
2023/09/13 19:23:25;;;;;;;13.90;5.70;;;;;;;19.75;41.83;99611.00;80064;1294;3011797;-70
2023/09/13 19:25:54;;;;;;;13.00;6.10;;;;;;;19.73;41.58;99611.08;78501;1295;3070228;-68
2023/09/13 19:28:21;;;;;;;16.70;6.50;;;;;;;19.70;41.21;99613.73;79944;1294;3013063;-72
2023/09/13 19:30:50;;;;;;;11.50;6.20;;;;;;;19.65;41.48;99616.31;79764;1295;3012189;-74
2023/09/13 19:33:25;;;;;;;14.80;5.90;;;;;;;19.60;41.68;99612.83;78630;1295;3052615;-69
2023/09/13 19:35:59;;;;;;;15.40;5.90;;;;;;;19.55;41.57;99611.56;78855;1298;3050484;-71
2023/09/13 19:38:26;;;;;;;20.40;6.40;;;;;;;19.50;41.66;99611.30;79759;1299;3011559;-71
2023/09/13 19:40:54;;;;;;;12.80;6.20;;;;;;;19.43;41.94;99610.07;78626;1298;3052270;-73
2023/09/13 19:43:21;;;;;;;9.80;6.00;;;;;;;19.38;42.22;99607.16;79807;1298;3014872;-70
2023/09/13 19:45:52;;;;;;;10.20;5.70;;;;;;;19.34;41.97;99606.29;79876;1295;3011785;-67
2023/09/13 19:48:20;;;;;;;27.60;6.60;;;;;;;19.30;42.35;99609.34;78734;1298;3048598;-71
2023/09/13 19:51:07;;;;;;;10.60;6.00;;;;;;;19.26;42.32;99611.52;79965;1294;3013140;-69
2023/09/13 19:53:35;;;;;;;14.80;6.20;;;;;;;19.21;42.16;99609.98;78871;1298;3052415;-70
2023/09/13 19:56:04;;;;;;;15.60;6.00;;;;;;;19.18;41.88;99612.55;80149;1295;3012824;-71
2023/09/13 19:58:30;;;;;;;13.20;6.30;;;;;;;19.13;41.88;99610.21;79962;1295;3011869;-68
2023/09/13 20:01:09;;;;;;;19.10;6.70;;;;;;;19.09;41.83;99616.58;78418;1299;3056871;-69
2023/09/13 20:03:37;;;;;;;15.30;6.60;;;;;;;19.03;41.94;99613.23;78841;1299;3049413;-67
2023/09/13 20:06:10;;;;;;;16.90;6.90;;;;;;;19.00;42.08;99614.78;79879;1295;3014431;-69
2023/09/13 20:08:38;;;;;;;14.20;6.10;;;;;;;18.95;42.09;99610.59;78488;1298;3054222;-71
2023/09/13 20:11:05;;;;;;;14.00;6.40;;;;;;;18.89;42.28;99609.56;80024;1296;3012923;-70
2023/09/13 20:13:32;;;;;;;16.10;6.50;;;;;;;18.85;42.63;99606.36;79904;1296;3011601;-69
2023/09/13 20:16:00;;;;;;;16.80;7.40;;;;;;;18.78;42.82;99603.84;78630;1295;3025793;-71
2023/09/13 20:18:26;;;;;;;13.20;6.00;;;;;;;18.74;42.94;99599.90;80199;1296;3013812;-70
2023/09/13 20:20:57;;;;;;;11.20;5.90;;;;;;;18.70;43.42;99603.15;79795;1298;3011567;-71
2023/09/13 20:23:24;;;;;;;14.20;6.80;;;;;;;18.66;43.22;99601.22;78804;1308;3052080;-72
2023/09/13 20:25:52;;;;;;;13.80;5.50;;;;;;;18.61;43.27;99604.67;80094;1295;3011687;-69
2023/09/13 20:28:19;;;;;;;13.80;6.10;;;;;;;18.57;43.34;99598.46;79873;1295;3013627;-70
2023/09/13 20:30:47;;;;;;;15.20;6.40;;;;;;;18.53;43.58;99602.72;78532;1300;3058077;-71
2023/09/13 20:33:15;;;;;;;11.30;5.80;;;;;;;18.49;43.57;99601.16;79864;1298;3018311;-68
2023/09/13 20:35:46;;;;;;;16.00;6.00;;;;;;;18.45;43.86;99604.05;80049;1296;3011858;-69
2023/09/13 20:38:17;;;;;;;16.20;5.90;;;;;;;18.41;43.91;99606.14;78777;1302;3052747;-69
2023/09/13 20:40:43;;;;;;;15.30;6.20;;;;;;;18.36;44.33;99601.33;80356;1298;3011718;-69
2023/09/13 20:43:12;;;;;;;17.80;6.60;;;;;;;18.33;43.91;99598.95;79465;1298;3011640;-70
2023/09/13 20:45:39;;;;;;;12.00;6.20;;;;;;;18.28;44.36;99594.89;79902;1295;3013843;-67
2023/09/13 20:48:07;;;;;;;14.50;6.60;;;;;;;18.24;44.41;99595.61;80150;1296;3011700;-66
2023/09/13 20:50:34;;;;;;;19.40;6.80;;;;;;;18.23;44.33;99596.29;78811;1295;3052425;-68
2023/09/13 20:53:01;;;;;;;12.50;6.10;;;;;;;18.22;44.54;99595.50;79831;1298;3012754;-68
2023/09/13 20:55:29;;;;;;;20.10;6.30;;;;;;;18.19;44.68;99595.19;79948;1298;3011956;-67
2023/09/13 20:57:58;;;;;;;18.80;6.30;;;;;;;18.17;44.73;99595.95;78710;1298;3068983;-70
2023/09/13 21:00:24;;;;;;;9.80;5.90;;;;;;;18.15;44.84;99596.47;79927;1296;3012940;-69
2023/09/13 21:02:53;;;;;;;14.70;6.80;;;;;;;18.12;44.96;99599.02;79961;1298;3011620;-73
2023/09/13 21:05:20;;;;;;;13.00;6.20;;;;;;;18.10;45.31;99599.39;78940;1295;3053610;-72
2023/09/13 21:07:47;;;;;;;14.90;6.20;;;;;;;18.06;45.46;99596.16;79934;1298;3018993;-69
2023/09/13 21:10:14;;;;;;;15.90;6.70;;;;;;;18.04;45.19;99594.64;79936;1298;3011567;-72
2023/09/13 21:12:42;;;;;;;11.50;6.20;;;;;;;18.03;45.37;99595.00;78482;1299;3028123;-75
2023/09/13 21:15:09;;;;;;;14.50;6.10;;;;;;;18.01;45.33;99596.45;79702;1296;3018874;-71
2023/09/13 21:17:35;;;;;;;13.20;6.40;;;;;;;18.01;45.27;99597.33;79904;1296;3011556;-67
2023/09/13 21:20:05;;;;;;;17.10;5.80;;;;;;;18.00;45.32;99603.81;78603;1298;3026249;-73
2023/09/13 21:22:32;;;;;;;12.20;6.30;;;;;;;17.99;45.15;99601.58;79961;1295;3012697;-69
2023/09/13 21:25:00;;;;;;;10.90;5.50;;;;;;;17.99;45.62;99603.55;79817;1298;3011393;-74
2023/09/13 21:27:29;;;;;;;10.50;5.90;;;;;;;17.97;45.77;99604.06;78687;1295;3067924;-70
2023/09/13 21:29:55;;;;;;;10.70;5.60;;;;;;;17.97;45.78;99605.88;79797;1296;3012974;-72
2023/09/13 21:32:22;;;;;;;13.10;5.50;;;;;;;17.95;45.76;99605.48;79718;1295;3011670;-74
2023/09/13 21:34:50;;;;;;;15.90;6.00;;;;;;;17.94;45.94;99598.70;78629;1298;3052583;-70
2023/09/13 21:37:16;;;;;;;18.00;5.80;;;;;;;17.93;46.08;99596.78;79771;1298;3013595;-70
2023/09/13 21:39:43;;;;;;;14.40;5.80;;;;;;;17.92;45.86;99597.77;79771;1296;3011417;-70
2023/09/13 21:42:11;;;;;;;13.10;6.90;;;;;;;17.92;45.78;99597.27;78792;1298;3026553;-72
2023/09/13 21:44:39;;;;;;;14.80;6.00;;;;;;;17.89;46.12;99596.08;79983;1300;3011613;-76
2023/09/13 21:47:06;;;;;;;10.80;5.60;;;;;;;17.87;46.03;99595.92;79754;1298;3011822;-71